• Join FlightAware (Why Join?)
  • Login
  • US Flag 
11:24AM EDT


 

Airport Tracker/Info


-or-


 

Live Flight TrackerFlight Track Log ✈ N50SH ✈ 17-May-2012 ✈ KALB - N07

Flight Track Log - Related Links

Times and Time Zones

All times are in EDT time to prevent confusion due to time zone crossing. See the N50SH flight status page for this flight to view local times or setup timezone preferences in your user account.

Time Position Orientation Groundspeed Altitude Reporting Facility
EDT Latitude Longitude Course Direction KTS MPH feet Rate Location/Type
02:20PM 42.9494 -73.7419 189° South 137 158 6,600  Level Boston Center
02:21PM 42.9139 -73.7497 187° South 133 153 7,100 600 Climbing Boston Center
02:22PM 42.8700 -73.7575 182° South 143 165 7,900 780 Climbing Boston Center
02:23PM 42.8283 -73.7594 195° South 146 168 8,700 540 Climbing Boston Center
02:24PM 42.7992 -73.7700 198° South 140 161 9,000 -60 Climbing Boston Center
02:25PM 42.7572 -73.7889 200° South 156 180 8,600 -240 Descending Boston Center
02:26PM 42.7089 -73.8133 197° South 150 173 8,600  Level Boston Center
02:27PM 42.6711 -73.8294 199° South 151 174 8,600  Level Boston Center
02:28PM 42.6314 -73.8483 201° Southwest 154 177 8,600  Level Boston Center
02:29PM 42.5894 -73.8700 198° South 153 176 8,600  Level Boston Center
02:30PM 42.5539 -73.8861 200° South 157 181 8,600  Level Boston Center
02:31PM 42.5097 -73.9075 202° Southwest 161 185 8,600  Level Boston Center
02:32PM 42.4697 -73.9292 191° South 154 177 8,600  Level Boston Center
02:33PM 42.4511 -73.9342 193° South 148 170 8,600  Level Boston Center
02:34PM 42.4092 -73.9472 185° South 152 175 8,600  Level Boston Center
02:35PM 42.3675 -73.9519 193° South 170 196 8,600  Level Boston Center
02:36PM 42.3172 -73.9675 194° South 175 201 8,600  Level Boston Center
02:37PM 42.2794 -73.9806 186° South 170 196 8,600  Level Boston Center
02:38PM 42.2294 -73.9878 188° South 160 184 8,600  Level Boston Center
02:39PM 42.1897 -73.9953 189° South 160 184 8,600  Level Boston Center
02:40PM 42.1417 -74.0053 195° South 160 184 8,600  Level Boston Center
02:41PM 42.1061 -74.0183 194° South 160 184 8,600  Level Boston Center
02:42PM 42.0600 -74.0339 197° South 160 184 8,600  Level Boston Center
02:43PM 42.0222 -74.0497 192° South 165 190 8,600  Level Boston Center
02:44PM 41.9761 -74.0625 192° South 165 190 8,600  Level Boston Center
02:45PM 41.9406 -74.0728 186° South 160 184 8,600  Level Boston Center
02:46PM 41.8925 -74.0800 191° South 160 184 8,600  Level Boston Center
02:47PM 41.8547 -74.0900 190° South 160 184 8,600  Level Boston Center
02:48PM 41.8108 -74.1000 192° South 160 184 8,600  Level Boston Center
02:49PM 41.7733 -74.1103 189° South 149 171 8,600  Level Boston Center
02:50PM 41.7378 -74.1178 193° South 143 165 8,600  Level Boston Center
02:51PM 41.6958 -74.1306 190° South 143 165 8,600  Level Boston Center
02:52PM 41.6519 -74.1406 194° South 148 170 8,600  Level Boston Center
02:53PM 41.6142 -74.1533 192° South 154 177 8,600  Level Boston Center
02:54PM 41.5703 -74.1661 192° South 154 177 8,600  Level Boston Center
02:55PM 41.5264 -74.1786 196° South 154 177 8,600  Level Boston Center
02:56PM 41.4864 -74.1942 195° South 159 183 8,600  Level Boston Center
02:57PM 41.4508 -74.2069 195° South 159 183 8,600  Level Boston Center
02:58PM 41.4067 -74.2225 198° South 153 176 8,600 -180 Level Boston Center
02:59PM 41.3711 -74.2381 187° South 153 176 8,300 -780 Descending Boston Center
03:00PM 41.3000 -74.2500 180° South 189 217 6,900 -1,020 Descending New York TRACON
03:01PM 41.2500 -74.2500 201° Southwest 179 206 6,000 -840 Descending New York TRACON
03:02PM 41.2167 -74.2667 228° Southwest 171 197 5,300 -720 Descending New York TRACON
03:03PM 41.1833 -74.3167 180° South 161 185 4,600 -720 Descending New York TRACON
03:04PM 41.1333 -74.3167 166° South 161 185 3,800 -720 Descending New York TRACON
03:05PM 41.0833 -74.3000 201° Southwest 167 192 3,200 -600 Descending New York TRACON
03:06PM 41.0500 -74.3167 201° Southwest 178 205 2,700 -540 Descending New York TRACON